sensor_id;sensor_type;location;lat;lon;timestamp;P1;durP1;ratioP1;P2;durP2;ratioP2
12912;SDS011;6524;51.368;11.984;2023-12-20T00:03:18;2.20;;;2.00;;
12912;SDS011;6524;51.368;11.984;2023-12-20T00:08:19;2.13;;;2.00;;
12912;SDS011;6524;51.368;11.984;2023-12-20T00:13:19;2.20;;;2.00;;
12912;SDS011;6524;51.368;11.984;2023-12-20T00:18:19;2.30;;;2.10;;
12912;SDS011;6524;51.368;11.984;2023-12-20T00:23:19;2.78;;;2.25;;
12912;SDS011;6524;51.368;11.984;2023-12-20T00:28:20;2.63;;;2.30;;
12912;SDS011;6524;51.368;11.984;2023-12-20T00:33:20;2.40;;;2.20;;
12912;SDS011;6524;51.368;11.984;2023-12-20T00:38:20;5.43;;;3.90;;
12912;SDS011;6524;51.368;11.984;2023-12-20T00:43:21;2.50;;;2.30;;
12912;SDS011;6524;51.368;11.984;2023-12-20T00:48:22;2.50;;;2.30;;
12912;SDS011;6524;51.368;11.984;2023-12-20T00:53:22;2.33;;;2.13;;
12912;SDS011;6524;51.368;11.984;2023-12-20T00:58:23;2.40;;;2.20;;
12912;SDS011;6524;51.368;11.984;2023-12-20T05:05:53;2.70;;;2.50;;
12912;SDS011;6524;51.368;11.984;2023-12-20T05:10:54;2.75;;;2.55;;
12912;SDS011;6524;51.368;11.984;2023-12-20T05:16:18;2.70;;;2.50;;
12912;SDS011;6524;51.368;11.984;2023-12-20T05:21:21;2.60;;;2.40;;
12912;SDS011;6524;51.368;11.984;2023-12-20T05:26:29;2.38;;;2.17;;
12912;SDS011;6524;51.368;11.984;2023-12-20T05:31:44;3.20;;;2.42;;
12912;SDS011;6524;51.368;11.984;2023-12-20T05:36:45;2.75;;;2.55;;
12912;SDS011;6524;51.368;11.984;2023-12-20T05:41:46;3.30;;;2.78;;
12912;SDS011;6524;51.368;11.984;2023-12-20T05:46:49;4.00;;;3.60;;
12912;SDS011;6524;51.368;11.984;2023-12-20T05:51:50;3.22;;;2.92;;
12912;SDS011;6524;51.368;11.984;2023-12-20T05:56:51;3.22;;;2.90;;
12912;SDS011;6524;51.368;11.984;2023-12-20T06:01:51;3.55;;;2.90;;
12912;SDS011;6524;51.368;11.984;2023-12-20T06:06:52;3.45;;;3.13;;
12912;SDS011;6524;51.368;11.984;2023-12-20T06:11:52;3.70;;;3.30;;
12912;SDS011;6524;51.368;11.984;2023-12-20T06:16:58;3.63;;;3.33;;
12912;SDS011;6524;51.368;11.984;2023-12-20T06:22:03;4.30;;;3.00;;
12912;SDS011;6524;51.368;11.984;2023-12-20T06:27:10;3.42;;;3.03;;
12912;SDS011;6524;51.368;11.984;2023-12-20T06:32:11;4.13;;;3.40;;
12912;SDS011;6524;51.368;11.984;2023-12-20T06:37:11;3.47;;;3.15;;
12912;SDS011;6524;51.368;11.984;2023-12-20T06:42:23;2.97;;;2.67;;
12912;SDS011;6524;51.368;11.984;2023-12-20T06:47:32;3.75;;;2.25;;
12912;SDS011;6524;51.368;11.984;2023-12-20T06:52:38;3.45;;;2.10;;
12912;SDS011;6524;51.368;11.984;2023-12-20T06:57:39;5.25;;;2.00;;
12912;SDS011;6524;51.368;11.984;2023-12-20T07:02:39;3.55;;;1.90;;
12912;SDS011;6524;51.368;11.984;2023-12-20T07:07:43;4.57;;;2.75;;
12912;SDS011;6524;51.368;11.984;2023-12-20T07:12:48;6.57;;;1.70;;
12912;SDS011;6524;51.368;11.984;2023-12-20T07:17:49;4.28;;;1.80;;
12912;SDS011;6524;51.368;11.984;2023-12-20T07:22:54;3.08;;;1.90;;
12912;SDS011;6524;51.368;11.984;2023-12-20T07:28:20;4.20;;;1.80;;
12912;SDS011;6524;51.368;11.984;2023-12-20T07:33:31;2.23;;;1.80;;
12912;SDS011;6524;51.368;11.984;2023-12-20T07:38:36;4.87;;;2.20;;
12912;SDS011;6524;51.368;11.984;2023-12-20T07:43:44;3.20;;;1.88;;
12912;SDS011;6524;51.368;11.984;2023-12-20T07:48:47;4.82;;;2.22;;
12912;SDS011;6524;51.368;11.984;2023-12-20T07:53:47;1.90;;;1.70;;
12912;SDS011;6524;51.368;11.984;2023-12-20T07:58:47;4.07;;;1.90;;
12912;SDS011;6524;51.368;11.984;2023-12-20T08:03:48;4.32;;;2.50;;
12912;SDS011;6524;51.368;11.984;2023-12-20T08:08:49;2.20;;;1.73;;
12912;SDS011;6524;51.368;11.984;2023-12-20T08:13:49;2.83;;;1.80;;
12912;SDS011;6524;51.368;11.984;2023-12-20T08:18:51;3.10;;;1.80;;
12912;SDS011;6524;51.368;11.984;2023-12-20T08:23:52;4.95;;;2.28;;
12912;SDS011;6524;51.368;11.984;2023-12-20T08:28:52;2.88;;;1.80;;
12912;SDS011;6524;51.368;11.984;2023-12-20T08:33:53;2.80;;;2.08;;
12912;SDS011;6524;51.368;11.984;2023-12-20T08:38:53;3.35;;;1.95;;
12912;SDS011;6524;51.368;11.984;2023-12-20T08:43:55;3.75;;;2.00;;
12912;SDS011;6524;51.368;11.984;2023-12-20T08:48:55;4.30;;;2.00;;
12912;SDS011;6524;51.368;11.984;2023-12-20T08:53:56;4.20;;;2.00;;
12912;SDS011;6524;51.368;11.984;2023-12-20T08:58:56;5.22;;;2.15;;
12912;SDS011;6524;51.368;11.984;2023-12-20T09:03:56;4.90;;;2.00;;
12912;SDS011;6524;51.368;11.984;2023-12-20T09:08:56;2.72;;;1.90;;
12912;SDS011;6524;51.368;11.984;2023-12-20T09:13:57;3.70;;;2.10;;
12912;SDS011;6524;51.368;11.984;2023-12-20T09:18:57;6.95;;;2.78;;
12912;SDS011;6524;51.368;11.984;2023-12-20T09:23:58;3.47;;;2.30;;
12912;SDS011;6524;51.368;11.984;2023-12-20T09:28:58;3.80;;;2.30;;
12912;SDS011;6524;51.368;11.984;2023-12-20T09:33:59;4.32;;;2.50;;
12912;SDS011;6524;51.368;11.984;2023-12-20T09:38:59;4.78;;;2.40;;
12912;SDS011;6524;51.368;11.984;2023-12-20T09:44:00;4.60;;;2.38;;
12912;SDS011;6524;51.368;11.984;2023-12-20T09:49:02;5.30;;;2.50;;
12912;SDS011;6524;51.368;11.984;2023-12-20T09:54:03;4.63;;;2.80;;
12912;SDS011;6524;51.368;11.984;2023-12-20T09:59:04;5.10;;;2.75;;
12912;SDS011;6524;51.368;11.984;2023-12-20T10:04:05;3.75;;;2.22;;
12912;SDS011;6524;51.368;11.984;2023-12-20T10:09:09;4.45;;;2.40;;
12912;SDS011;6524;51.368;11.984;2023-12-20T10:14:10;6.15;;;2.80;;
12912;SDS011;6524;51.368;11.984;2023-12-20T10:19:11;4.15;;;2.42;;
12912;SDS011;6524;51.368;11.984;2023-12-20T10:24:15;5.97;;;2.97;;
12912;SDS011;6524;51.368;11.984;2023-12-20T10:29:17;5.43;;;2.80;;
12912;SDS011;6524;51.368;11.984;2023-12-20T10:34:17;5.30;;;2.88;;
12912;SDS011;6524;51.368;11.984;2023-12-20T10:39:18;5.40;;;3.07;;
12912;SDS011;6524;51.368;11.984;2023-12-20T10:44:20;3.65;;;2.60;;
12912;SDS011;6524;51.368;11.984;2023-12-20T10:49:20;5.90;;;2.70;;
12912;SDS011;6524;51.368;11.984;2023-12-20T10:54:21;5.32;;;2.78;;
12912;SDS011;6524;51.368;11.984;2023-12-20T10:59:21;5.65;;;2.50;;
12912;SDS011;6524;51.368;11.984;2023-12-20T11:04:25;4.35;;;2.40;;
12912;SDS011;6524;51.368;11.984;2023-12-20T11:09:35;4.70;;;2.75;;
12912;SDS011;6524;51.368;11.984;2023-12-20T11:14:48;8.70;;;2.63;;
12912;SDS011;6524;51.368;11.984;2023-12-20T11:25:04;4.35;;;2.33;;
12912;SDS011;6524;51.368;11.984;2023-12-20T11:30:08;5.63;;;2.40;;
12912;SDS011;6524;51.368;11.984;2023-12-20T11:40:18;4.10;;;2.38;;
12912;SDS011;6524;51.368;11.984;2023-12-20T11:45:21;7.25;;;2.53;;
12912;SDS011;6524;51.368;11.984;2023-12-20T11:50:24;5.50;;;2.30;;
12912;SDS011;6524;51.368;11.984;2023-12-20T11:55:24;4.40;;;2.40;;
12912;SDS011;6524;51.368;11.984;2023-12-20T12:00:25;4.72;;;2.28;;
12912;SDS011;6524;51.368;11.984;2023-12-20T12:05:25;6.78;;;2.30;;
12912;SDS011;6524;51.368;11.984;2023-12-20T12:10:26;5.63;;;2.80;;
12912;SDS011;6524;51.368;11.984;2023-12-20T12:15:26;5.15;;;2.35;;
12912;SDS011;6524;51.368;11.984;2023-12-20T12:20:26;3.67;;;2.40;;
12912;SDS011;6524;51.368;11.984;2023-12-20T12:25:28;4.57;;;2.35;;
12912;SDS011;6524;51.368;11.984;2023-12-20T12:30:29;3.72;;;2.30;;
12912;SDS011;6524;51.368;11.984;2023-12-20T12:35:29;5.07;;;2.60;;
12912;SDS011;6524;51.368;11.984;2023-12-20T12:40:29;4.28;;;2.22;;
12912;SDS011;6524;51.368;11.984;2023-12-20T12:45:35;6.45;;;2.85;;
12912;SDS011;6524;51.368;11.984;2023-12-20T12:50:36;7.45;;;2.45;;
12912;SDS011;6524;51.368;11.984;2023-12-20T12:55:36;3.88;;;2.45;;
12912;SDS011;6524;51.368;11.984;2023-12-20T13:00:36;3.70;;;2.20;;
12912;SDS011;6524;51.368;11.984;2023-12-20T13:05:37;3.70;;;2.05;;
12912;SDS011;6524;51.368;11.984;2023-12-20T13:10:37;5.18;;;2.33;;
12912;SDS011;6524;51.368;11.984;2023-12-20T13:15:38;3.67;;;2.28;;
12912;SDS011;6524;51.368;11.984;2023-12-20T13:20:40;3.88;;;2.55;;
12912;SDS011;6524;51.368;11.984;2023-12-20T13:25:41;5.40;;;2.72;;
12912;SDS011;6524;51.368;11.984;2023-12-20T13:30:41;4.43;;;2.55;;
12912;SDS011;6524;51.368;11.984;2023-12-20T13:35:42;5.13;;;2.60;;
12912;SDS011;6524;51.368;11.984;2023-12-20T13:40:42;4.38;;;2.40;;
12912;SDS011;6524;51.368;11.984;2023-12-20T13:45:43;4.88;;;2.58;;
12912;SDS011;6524;51.368;11.984;2023-12-20T13:50:43;4.35;;;2.10;;
12912;SDS011;6524;51.368;11.984;2023-12-20T13:55:44;4.13;;;2.20;;
12912;SDS011;6524;51.368;11.984;2023-12-20T14:00:52;2.45;;;2.00;;
12912;SDS011;6524;51.368;11.984;2023-12-20T14:05:53;3.35;;;2.30;;
12912;SDS011;6524;51.368;11.984;2023-12-20T14:10:53;3.78;;;2.10;;
12912;SDS011;6524;51.368;11.984;2023-12-20T14:15:54;3.70;;;2.17;;
12912;SDS011;6524;51.368;11.984;2023-12-20T14:20:59;4.38;;;2.10;;
12912;SDS011;6524;51.368;11.984;2023-12-20T14:32:23;3.40;;;1.85;;
12912;SDS011;6524;51.368;11.984;2023-12-20T14:37:24;2.63;;;1.80;;
12912;SDS011;6524;51.368;11.984;2023-12-20T14:42:25;2.63;;;1.83;;
12912;SDS011;6524;51.368;11.984;2023-12-20T14:47:25;2.15;;;1.75;;
12912;SDS011;6524;51.368;11.984;2023-12-20T14:52:25;4.28;;;2.00;;
12912;SDS011;6524;51.368;11.984;2023-12-20T14:57:27;2.53;;;1.88;;
12912;SDS011;6524;51.368;11.984;2023-12-20T15:02:28;3.25;;;1.80;;
12912;SDS011;6524;51.368;11.984;2023-12-20T15:07:32;2.67;;;1.85;;
12912;SDS011;6524;51.368;11.984;2023-12-20T15:12:33;2.97;;;1.80;;
12912;SDS011;6524;51.368;11.984;2023-12-20T15:17:41;1.90;;;1.63;;
12912;SDS011;6524;51.368;11.984;2023-12-20T15:22:44;5.10;;;2.33;;
12912;SDS011;6524;51.368;11.984;2023-12-20T15:27:46;2.67;;;1.88;;
12912;SDS011;6524;51.368;11.984;2023-12-20T15:32:49;2.53;;;2.00;;
12912;SDS011;6524;51.368;11.984;2023-12-20T15:37:49;2.65;;;1.90;;
12912;SDS011;6524;51.368;11.984;2023-12-20T15:42:49;4.85;;;2.05;;
12912;SDS011;6524;51.368;11.984;2023-12-20T15:47:50;3.42;;;1.83;;
12912;SDS011;6524;51.368;11.984;2023-12-20T15:52:51;4.03;;;1.80;;
12912;SDS011;6524;51.368;11.984;2023-12-20T15:57:54;3.20;;;2.05;;
12912;SDS011;6524;51.368;11.984;2023-12-20T16:02:55;4.65;;;1.83;;
12912;SDS011;6524;51.368;11.984;2023-12-20T16:07:55;1.83;;;1.63;;
12912;SDS011;6524;51.368;11.984;2023-12-20T16:12:55;2.63;;;1.70;;
12912;SDS011;6524;51.368;11.984;2023-12-20T16:18:01;2.17;;;1.80;;
12912;SDS011;6524;51.368;11.984;2023-12-20T16:23:03;1.92;;;1.63;;
12912;SDS011;6524;51.368;11.984;2023-12-20T16:28:08;3.80;;;2.13;;
12912;SDS011;6524;51.368;11.984;2023-12-20T16:33:16;2.88;;;1.70;;
12912;SDS011;6524;51.368;11.984;2023-12-20T16:38:16;1.90;;;1.40;;
12912;SDS011;6524;51.368;11.984;2023-12-20T16:43:17;3.22;;;1.70;;
12912;SDS011;6524;51.368;11.984;2023-12-20T16:48:17;2.03;;;1.80;;
12912;SDS011;6524;51.368;11.984;2023-12-20T16:53:17;2.03;;;1.80;;
12912;SDS011;6524;51.368;11.984;2023-12-20T16:58:18;2.60;;;1.80;;
12912;SDS011;6524;51.368;11.984;2023-12-20T17:03:18;2.60;;;2.10;;
12912;SDS011;6524;51.368;11.984;2023-12-20T17:14:21;3.38;;;2.35;;
12912;SDS011;6524;51.368;11.984;2023-12-20T17:19:21;2.97;;;2.20;;
12912;SDS011;6524;51.368;11.984;2023-12-20T17:24:23;2.63;;;2.35;;
12912;SDS011;6524;51.368;11.984;2023-12-20T17:29:24;3.10;;;2.40;;
12912;SDS011;6524;51.368;11.984;2023-12-20T17:34:24;4.90;;;2.73;;
12912;SDS011;6524;51.368;11.984;2023-12-20T17:39:25;4.13;;;2.55;;
12912;SDS011;6524;51.368;11.984;2023-12-20T17:44:30;3.58;;;2.60;;
12912;SDS011;6524;51.368;11.984;2023-12-20T17:49:32;3.20;;;2.90;;
12912;SDS011;6524;51.368;11.984;2023-12-20T17:54:47;3.85;;;2.88;;
12912;SDS011;6524;51.368;11.984;2023-12-20T17:59:48;3.58;;;2.55;;
12912;SDS011;6524;51.368;11.984;2023-12-20T18:04:49;2.55;;;2.35;;
12912;SDS011;6524;51.368;11.984;2023-12-20T18:09:49;3.72;;;2.78;;
12912;SDS011;6524;51.368;11.984;2023-12-20T18:14:51;3.33;;;2.20;;
12912;SDS011;6524;51.368;11.984;2023-12-20T18:19:55;4.45;;;2.42;;
12912;SDS011;6524;51.368;11.984;2023-12-20T18:25:02;5.50;;;2.33;;
12912;SDS011;6524;51.368;11.984;2023-12-20T18:30:05;4.25;;;2.35;;
12912;SDS011;6524;51.368;11.984;2023-12-20T18:35:07;2.63;;;2.30;;
12912;SDS011;6524;51.368;11.984;2023-12-20T18:40:23;3.60;;;2.20;;
12912;SDS011;6524;51.368;11.984;2023-12-20T18:45:30;4.45;;;3.00;;
12912;SDS011;6524;51.368;11.984;2023-12-20T18:51:09;4.65;;;2.45;;
12912;SDS011;6524;51.368;11.984;2023-12-20T19:02:19;2.85;;;2.20;;
12912;SDS011;6524;51.368;11.984;2023-12-20T19:07:33;3.17;;;2.38;;
12912;SDS011;6524;51.368;11.984;2023-12-20T19:12:34;3.33;;;2.47;;
12912;SDS011;6524;51.368;11.984;2023-12-20T19:17:34;3.92;;;2.20;;
12912;SDS011;6524;51.368;11.984;2023-12-20T19:22:35;3.55;;;2.20;;
12912;SDS011;6524;51.368;11.984;2023-12-20T19:27:35;4.60;;;2.50;;
12912;SDS011;6524;51.368;11.984;2023-12-20T19:32:36;3.65;;;2.40;;
12912;SDS011;6524;51.368;11.984;2023-12-20T19:37:36;3.97;;;2.38;;
12912;SDS011;6524;51.368;11.984;2023-12-20T19:42:36;3.20;;;2.30;;
12912;SDS011;6524;51.368;11.984;2023-12-20T19:47:39;4.15;;;2.22;;
12912;SDS011;6524;51.368;11.984;2023-12-20T19:52:40;3.05;;;2.50;;
12912;SDS011;6524;51.368;11.984;2023-12-20T19:57:40;4.40;;;2.40;;
12912;SDS011;6524;51.368;11.984;2023-12-20T20:02:40;3.47;;;2.47;;
12912;SDS011;6524;51.368;11.984;2023-12-20T20:07:41;3.22;;;2.13;;
12912;SDS011;6524;51.368;11.984;2023-12-20T20:12:41;3.10;;;2.80;;
12912;SDS011;6524;51.368;11.984;2023-12-20T20:17:42;3.97;;;2.60;;
12912;SDS011;6524;51.368;11.984;2023-12-20T20:22:42;3.13;;;2.35;;
12912;SDS011;6524;51.368;11.984;2023-12-20T20:27:42;3.40;;;2.35;;
12912;SDS011;6524;51.368;11.984;2023-12-20T20:32:43;4.10;;;2.38;;
12912;SDS011;6524;51.368;11.984;2023-12-20T20:37:48;3.35;;;2.58;;
12912;SDS011;6524;51.368;11.984;2023-12-20T20:42:48;2.63;;;2.30;;
12912;SDS011;6524;51.368;11.984;2023-12-20T20:47:49;3.40;;;2.17;;
12912;SDS011;6524;51.368;11.984;2023-12-20T20:52:50;2.85;;;2.17;;
12912;SDS011;6524;51.368;11.984;2023-12-20T20:57:52;3.47;;;2.28;;
12912;SDS011;6524;51.368;11.984;2023-12-20T21:02:54;2.30;;;2.10;;
12912;SDS011;6524;51.368;11.984;2023-12-20T21:07:55;3.00;;;2.22;;
12912;SDS011;6524;51.368;11.984;2023-12-20T21:12:57;2.78;;;1.85;;
12912;SDS011;6524;51.368;11.984;2023-12-20T21:17:57;2.67;;;2.00;;
12912;SDS011;6524;51.368;11.984;2023-12-20T21:22:57;3.33;;;2.05;;
12912;SDS011;6524;51.368;11.984;2023-12-20T21:27:58;2.35;;;1.80;;
12912;SDS011;6524;51.368;11.984;2023-12-20T21:32:59;3.30;;;2.10;;
12912;SDS011;6524;51.368;11.984;2023-12-20T21:38:02;2.10;;;1.80;;
12912;SDS011;6524;51.368;11.984;2023-12-20T21:43:04;2.40;;;1.70;;
12912;SDS011;6524;51.368;11.984;2023-12-20T21:48:05;2.45;;;1.67;;
12912;SDS011;6524;51.368;11.984;2023-12-20T21:53:06;1.98;;;1.67;;
12912;SDS011;6524;51.368;11.984;2023-12-20T21:58:11;2.22;;;1.77;;
12912;SDS011;6524;51.368;11.984;2023-12-20T22:03:11;3.03;;;2.25;;
12912;SDS011;6524;51.368;11.984;2023-12-20T22:08:14;2.22;;;2.00;;
12912;SDS011;6524;51.368;11.984;2023-12-20T22:13:17;2.95;;;2.00;;
12912;SDS011;6524;51.368;11.984;2023-12-20T22:18:17;3.28;;;2.00;;
12912;SDS011;6524;51.368;11.984;2023-12-20T22:23:18;2.15;;;1.95;;
12912;SDS011;6524;51.368;11.984;2023-12-20T22:28:18;2.95;;;2.05;;
12912;SDS011;6524;51.368;11.984;2023-12-20T22:33:19;2.95;;;2.00;;
12912;SDS011;6524;51.368;11.984;2023-12-20T22:38:19;2.22;;;1.98;;
12912;SDS011;6524;51.368;11.984;2023-12-20T22:43:19;2.92;;;2.00;;
12912;SDS011;6524;51.368;11.984;2023-12-20T22:48:20;3.00;;;1.80;;
12912;SDS011;6524;51.368;11.984;2023-12-20T22:53:20;2.10;;;1.90;;
12912;SDS011;6524;51.368;11.984;2023-12-20T22:58:21;3.33;;;2.10;;
12912;SDS011;6524;51.368;11.984;2023-12-20T23:03:22;2.10;;;1.70;;
12912;SDS011;6524;51.368;11.984;2023-12-20T23:08:27;1.95;;;1.85;;
12912;SDS011;6524;51.368;11.984;2023-12-20T23:13:29;2.85;;;1.77;;
12912;SDS011;6524;51.368;11.984;2023-12-20T23:18:30;3.47;;;1.65;;
12912;SDS011;6524;51.368;11.984;2023-12-20T23:23:31;2.17;;;1.80;;
12912;SDS011;6524;51.368;11.984;2023-12-20T23:28:31;2.73;;;1.73;;
12912;SDS011;6524;51.368;11.984;2023-12-20T23:33:31;3.85;;;1.75;;
12912;SDS011;6524;51.368;11.984;2023-12-20T23:38:32;2.38;;;1.80;;
12912;SDS011;6524;51.368;11.984;2023-12-20T23:43:32;3.67;;;2.10;;
12912;SDS011;6524;51.368;11.984;2023-12-20T23:48:33;2.35;;;1.80;;
12912;SDS011;6524;51.368;11.984;2023-12-20T23:53:36;3.67;;;2.10;;
12912;SDS011;6524;51.368;11.984;2023-12-20T23:58:36;3.03;;;1.77;;
